Time;durP1;ratioP1;P1;durP2;ratioP2;P2;SDS_P1;SDS_P2;PMS_P1;PMS_P2;Temp;Humidity;BMP_temperature;BMP_pressure;BME280_temperature;BME280_humidity;BME280_pressure;Samples;Min_cycle;Max_cycle;Signal;HPM_P1;HPM_P2
2021/04/25 00:00:22;;;;;;;7.17;2.60;;;;;;;4.11;59.22;98219.31;1770818;81;21152;-69
2021/04/25 00:02:51;;;;;;;4.20;2.47;;;;;;;4.07;60.69;98217.03;1770635;80;21125;-69
2021/04/25 00:05:20;;;;;;;4.45;2.77;;;;;;;4.07;58.21;98213.17;1770707;81;21594;-70
2021/04/25 00:07:48;;;;;;;2.98;1.98;;;;;;;4.07;59.30;98211.89;1770697;81;21171;-71
2021/04/25 00:10:20;;;;;;;3.22;2.05;;;;;;;4.05;57.30;98211.14;1770704;81;21160;-71
2021/04/25 00:12:48;;;;;;;3.50;2.37;;;;;;;4.05;57.86;98205.55;1770839;80;21168;-73
2021/04/25 00:15:21;;;;;;;6.35;2.83;;;;;;;4.06;54.73;98203.81;1770750;80;21161;-73
2021/04/25 00:17:50;;;;;;;4.28;2.20;;;;;;;4.04;57.97;98194.92;1770558;81;21647;-74
2021/04/25 00:20:19;;;;;;;5.17;2.00;;;;;;;4.03;57.18;98193.27;1770863;80;21589;-71
2021/04/25 00:22:48;;;;;;;6.15;1.95;;;;;;;4.03;59.09;98195.02;1770709;80;21636;-73
2021/04/25 00:25:17;;;;;;;4.53;2.35;;;;;;;3.99;58.51;98187.96;1770810;80;21160;-73
2021/04/25 00:27:46;;;;;;;4.22;2.80;;;;;;;3.97;59.70;98182.56;1770615;80;21224;-75
2021/04/25 00:30:21;;;;;;;9.88;2.15;;;;;;;3.94;58.46;98177.59;1770791;81;21161;-74
2021/04/25 00:32:50;;;;;;;6.42;2.55;;;;;;;3.93;56.72;98178.54;1770972;81;21164;-74
2021/04/25 00:35:19;;;;;;;4.67;2.75;;;;;;;3.89;56.73;98179.16;1770838;81;21212;-74
2021/04/25 00:37:47;;;;;;;3.98;2.25;;;;;;;3.86;59.43;98181.93;1770745;80;21141;-73
2021/04/25 00:40:17;;;;;;;4.47;2.33;;;;;;;3.84;58.72;98173.51;1770740;81;21192;-73
2021/04/25 00:42:46;;;;;;;7.22;2.30;;;;;;;3.85;59.09;98178.19;1770743;81;21569;-73
2021/04/25 00:45:17;;;;;;;3.37;2.05;;;;;;;3.83;58.26;98179.10;1770803;80;21207;-73
2021/04/25 00:47:49;;;;;;;3.08;2.02;;;;;;;3.82;59.19;98180.02;1770797;81;21192;-72
2021/04/25 00:50:26;;;;;;;3.85;1.80;;;;;;;3.80;60.18;98187.00;1770616;81;21565;-70
2021/04/25 00:52:58;;;;;;;4.85;2.25;;;;;;;3.82;59.29;98190.29;1770590;81;21156;-71
2021/04/25 00:55:30;;;;;;;4.58;2.15;;;;;;;3.85;61.05;98191.86;1770883;80;21125;-71
2021/04/25 00:58:02;;;;;;;4.87;2.08;;;;;;;3.86;61.56;98188.35;1771246;80;21152;-71
2021/04/25 01:00:32;;;;;;;6.15;2.90;;;;;;;3.88;60.54;98183.12;1770875;81;21129;-71
2021/04/25 01:03:01;;;;;;;4.72;2.33;;;;;;;3.90;58.78;98179.53;1771285;81;21188;-71
2021/04/25 01:05:30;;;;;;;7.62;2.75;;;;;;;3.98;60.05;98181.62;1770881;80;21625;-71
2021/04/25 01:07:57;;;;;;;3.83;2.65;;;;;;;4.01;60.12;98184.82;1771399;81;21129;-71
2021/04/25 01:10:25;;;;;;;5.22;2.40;;;;;;;4.02;59.80;98181.34;1750019;81;21148;-71
2021/04/25 01:12:54;;;;;;;4.35;2.20;;;;;;;4.01;60.62;98182.25;1771234;80;21219;-70
2021/04/25 01:15:22;;;;;;;3.10;2.40;;;;;;;4.01;60.62;98171.97;1770720;80;21580;-70
2021/04/25 01:17:50;;;;;;;4.87;1.98;;;;;;;4.04;60.70;98170.97;1770773;80;21148;-69
2021/04/25 01:20:21;;;;;;;4.78;1.90;;;;;;;4.06;59.92;98167.83;1770863;81;21541;-70
2021/04/25 01:22:50;;;;;;;2.50;1.87;;;;;;;4.11;59.12;98164.06;1770767;81;21239;-72
2021/04/25 01:25:23;;;;;;;4.62;2.12;;;;;;;4.16;58.43;98167.14;1771154;80;21145;-72
2021/04/25 01:27:51;;;;;;;5.47;2.37;;;;;;;4.20;58.69;98167.80;1770780;80;21550;-73
2021/04/25 01:30:24;;;;;;;6.70;2.70;;;;;;;4.18;57.20;98158.88;1771180;81;21137;-72
2021/04/25 01:32:53;;;;;;;5.95;2.80;;;;;;;4.18;59.05;98152.92;1771006;81;21172;-69
2021/04/25 01:35:24;;;;;;;4.17;2.08;;;;;;;4.12;60.23;98153.32;1771022;81;21196;-72
2021/04/25 01:37:56;;;;;;;5.15;2.15;;;;;;;4.12;60.28;98149.47;1771457;80;21255;-69
2021/04/25 01:40:27;;;;;;;6.87;2.12;;;;;;;4.08;60.27;98149.30;1771498;80;21144;-75
2021/04/25 01:42:55;;;;;;;4.53;2.27;;;;;;;4.04;60.36;98146.56;1771263;80;21526;-74
2021/04/25 01:45:24;;;;;;;2.52;1.80;;;;;;;4.00;60.82;98142.08;1771657;80;21553;-69
2021/04/25 01:47:55;;;;;;;4.87;2.33;;;;;;;4.02;60.88;98143.25;1771815;80;21152;-69
2021/04/25 01:50:26;;;;;;;3.67;2.55;;;;;;;4.03;59.17;98147.48;1771213;81;21711;-73
2021/04/25 01:52:55;;;;;;;4.40;2.00;;;;;;;4.00;60.10;98150.25;1771229;81;21157;-71
2021/04/25 01:55:24;;;;;;;3.08;2.42;;;;;;;3.98;60.68;98149.05;1770943;81;21165;-70
2021/04/25 01:57:53;;;;;;;8.18;2.83;;;;;;;3.99;60.76;98149.87;1770825;80;21561;-70
2021/04/25 02:00:36;;;;;;;4.55;2.67;;;;;;;3.99;60.90;98151.16;1770975;81;21155;-73
2021/04/25 02:03:08;;;;;;;4.53;2.47;;;;;;;3.99;61.25;98151.98;1777547;79;21164;-74
2021/04/25 02:05:37;;;;;;;4.37;2.30;;;;;;;4.05;59.38;98141.30;1770834;80;21192;-72
2021/04/25 02:08:08;;;;;;;4.87;2.20;;;;;;;4.08;60.30;98142.88;1771083;80;21156;-70
2021/04/25 02:10:38;;;;;;;2.83;1.85;;;;;;;4.08;60.40;98137.28;1771010;80;21148;-69
2021/04/25 02:13:07;;;;;;;5.37;1.95;;;;;;;4.06;60.75;98133.97;1770973;80;21790;-75
2021/04/25 02:15:35;;;;;;;4.37;2.02;;;;;;;4.07;61.01;98133.51;1770714;81;21565;-71
2021/04/25 02:18:04;;;;;;;5.05;2.87;;;;;;;4.05;60.91;98131.48;1770763;81;21157;-71
2021/04/25 02:20:33;;;;;;;4.10;1.87;;;;;;;4.03;60.43;98133.34;1771128;81;21117;-73
2021/04/25 02:23:02;;;;;;;2.70;1.45;;;;;;;4.03;60.62;98138.48;1771166;80;21235;-71
2021/04/25 02:25:30;;;;;;;4.55;1.90;;;;;;;3.98;61.11;98129.77;1771168;80;21152;-71
2021/04/25 02:27:58;;;;;;;2.37;1.62;;;;;;;3.97;60.40;98123.47;1770911;80;21149;-69
2021/04/25 02:30:30;;;;;;;6.17;2.90;;;;;;;3.89;61.70;98125.20;1770903;80;21177;-69
2021/04/25 02:32:59;;;;;;;2.62;2.15;;;;;;;3.87;61.56;98123.21;1770910;80;21620;-72
2021/04/25 02:35:29;;;;;;;2.17;1.50;;;;;;;3.83;61.75;98121.76;1770916;80;21147;-70
2021/04/25 02:37:58;;;;;;;4.62;1.47;;;;;;;3.81;61.03;98119.27;1770846;80;21192;-71
2021/04/25 02:40:30;;;;;;;2.47;1.52;;;;;;;3.71;62.68;98116.11;1770811;81;21172;-71
2021/04/25 02:43:00;;;;;;;2.65;1.65;;;;;;;3.69;62.43;98118.79;1770759;80;21168;-71
2021/04/25 02:45:28;;;;;;;2.67;1.60;;;;;;;3.66;61.73;98114.28;1770771;81;21191;-71
2021/04/25 02:48:03;;;;;;;2.37;1.57;;;;;;;3.66;62.33;98115.11;1770959;81;21180;-72
2021/04/25 02:50:36;;;;;;;1.75;1.35;;;;;;;3.63;62.25;98115.77;1771110;80;21165;-71
2021/04/25 02:53:05;;;;;;;2.55;1.42;;;;;;;3.61;62.58;98112.48;1770782;81;21585;-71
2021/04/25 02:55:33;;;;;;;7.08;1.98;;;;;;;3.62;62.58;98117.98;1770833;80;21180;-71
2021/04/25 02:58:01;;;;;;;2.67;1.55;;;;;;;3.61;61.58;98111.20;1770732;80;21124;-71
2021/04/25 03:00:30;;;;;;;3.02;2.00;;;;;;;3.58;62.82;98113.96;1770741;80;21215;-70
2021/04/25 03:02:59;;;;;;;4.10;1.90;;;;;;;3.53;62.85;98110.39;1770803;80;21156;-71
2021/04/25 03:05:27;;;;;;;4.87;1.20;;;;;;;3.53;62.89;98108.28;1770994;81;21157;-71
2021/04/25 03:07:55;;;;;;;1.67;1.12;;;;;;;3.55;62.78;98110.27;1770882;81;21129;-71
2021/04/25 03:10:25;;;;;;;1.32;1.00;;;;;;;3.52;62.79;98110.02;1771061;80;21577;-70
2021/04/25 03:12:54;;;;;;;5.22;1.47;;;;;;;3.53;62.87;98109.11;1771006;81;21144;-70
2021/04/25 03:15:23;;;;;;;2.22;1.12;;;;;;;3.52;63.09;98110.47;1771068;80;21156;-70
2021/04/25 03:17:51;;;;;;;5.87;1.82;;;;;;;3.52;62.42;98108.73;1770901;81;21600;-71
2021/04/25 03:20:23;;;;;;;3.77;1.62;;;;;;;3.52;62.63;98106.62;1770880;81;21557;-71
2021/04/25 03:22:51;;;;;;;1.95;1.22;;;;;;;3.51;62.96;98113.50;1770651;80;21105;-70
2021/04/25 03:25:20;;;;;;;2.85;1.20;;;;;;;3.53;61.88;98109.11;1770842;80;21160;-73
2021/04/25 03:27:49;;;;;;;5.92;1.77;;;;;;;3.54;62.61;98100.46;1770844;81;21184;-74
2021/04/25 03:30:19;;;;;;;2.10;1.40;;;;;;;3.54;62.53;98099.66;1770817;80;21173;-74
2021/04/25 03:32:47;;;;;;;2.62;1.60;;;;;;;3.50;63.07;98095.16;1770803;80;21168;-73
2021/04/25 03:35:37;;;;;;;3.98;1.32;;;;;;;3.47;62.80;98098.38;1771088;80;21200;-73
2021/04/25 03:38:05;;;;;;;4.40;1.60;;;;;;;3.50;62.64;98100.77;1765670;79;21169;-73
2021/04/25 03:40:33;;;;;;;1.45;1.20;;;;;;;3.46;63.24;98101.43;1765571;81;21339;-74
2021/04/25 03:43:00;;;;;;;3.25;1.65;;;;;;;3.50;61.76;98092.59;1765640;81;21197;-73
2021/04/25 03:45:28;;;;;;;3.25;1.98;;;;;;;3.52;62.87;98098.92;1765709;80;21150;-71
2021/04/25 03:47:56;;;;;;;5.10;2.12;;;;;;;3.50;63.09;98102.06;1765646;81;21153;-71
2021/04/25 03:50:27;;;;;;;2.95;1.60;;;;;;;3.51;62.11;98099.83;1765674;80;21360;-71
2021/04/25 03:52:55;;;;;;;2.67;1.47;;;;;;;3.53;62.75;98105.71;1765783;80;21168;-71
2021/04/25 03:55:24;;;;;;;2.02;1.40;;;;;;;3.56;62.73;98100.38;1784975;79;21163;-71
2021/04/25 03:57:52;;;;;;;2.92;1.67;;;;;;;3.62;61.96;98109.00;1784483;78;21301;-71
2021/04/25 04:00:20;;;;;;;5.35;2.10;;;;;;;3.66;62.13;98103.55;1784746;78;21167;-73
2021/04/25 04:02:49;;;;;;;2.87;1.35;;;;;;;3.71;62.37;98101.98;1784456;79;21171;-71
2021/04/25 04:05:18;;;;;;;4.00;1.82;;;;;;;3.72;61.36;98096.77;1784368;79;21293;-70
2021/04/25 04:07:46;;;;;;;2.65;1.32;;;;;;;3.74;62.54;98092.34;1784412;78;21329;-70
2021/04/25 04:10:14;;;;;;;2.55;1.60;;;;;;;3.72;62.80;98096.77;1784368;79;21179;-70
2021/04/25 04:12:42;;;;;;;1.95;1.52;;;;;;;3.74;62.53;98091.05;1784482;79;21646;-71
2021/04/25 04:15:11;;;;;;;1.75;1.52;;;;;;;3.77;62.33;98095.98;1784502;79;21151;-70
2021/04/25 04:17:39;;;;;;;2.72;1.52;;;;;;;3.78;62.75;98097.64;1784228;79;21176;-71
2021/04/25 04:22:48;;;;;;;2.15;1.52;;;;;;;3.78;62.15;98096.81;1786568;80;21187;-70
2021/04/25 04:25:16;;;;;;;2.77;1.70;;;;;;;3.74;62.89;98100.04;1786582;80;21172;-71
2021/04/25 04:27:44;;;;;;;2.62;1.67;;;;;;;3.75;62.31;98097.84;1793386;80;21223;-72
2021/04/25 04:30:14;;;;;;;4.75;1.45;;;;;;;3.77;62.23;98098.55;1789533;79;21150;-73
2021/04/25 04:32:42;;;;;;;3.75;2.10;;;;;;;3.77;62.70;98098.55;1789358;79;21174;-73
2021/04/25 04:35:11;;;;;;;4.50;2.70;;;;;;;3.83;62.31;98097.36;1789417;79;21111;-74
2021/04/25 04:37:39;;;;;;;4.92;2.22;;;;;;;3.84;62.66;98101.58;1789576;79;21583;-74
2021/04/25 04:42:50;;;;;;;5.33;1.90;;;;;;;3.89;62.47;98102.09;1721083;83;21126;-70
2021/04/25 04:45:18;;;;;;;2.75;1.80;;;;;;;3.95;62.52;98099.14;1731584;81;21171;-70
2021/04/25 04:47:48;;;;;;;4.33;1.60;;;;;;;4.01;62.75;98094.88;1691293;84;21249;-71
2021/04/25 04:50:18;;;;;;;2.20;1.50;;;;;;;4.05;62.19;98095.05;1728343;81;21567;-71
2021/04/25 04:52:47;;;;;;;4.70;1.75;;;;;;;4.07;61.98;98096.25;1721354;83;21206;-71
2021/04/25 04:55:17;;;;;;;4.28;2.45;;;;;;;4.08;62.00;98096.16;1721373;83;21164;-72
2021/04/25 04:57:45;;;;;;;2.92;1.62;;;;;;;4.12;61.74;98097.61;1721235;83;21606;-71
2021/04/25 05:00:14;;;;;;;3.58;1.60;;;;;;;4.17;61.47;98090.86;1721158;83;21161;-71
2021/04/25 05:02:41;;;;;;;5.08;1.85;;;;;;;4.20;61.46;98090.20;1721387;83;21174;-71
2021/04/25 05:05:10;;;;;;;4.03;1.75;;;;;;;4.25;61.40;98093.76;1721308;83;21189;-70
2021/04/25 05:07:38;;;;;;;3.62;1.60;;;;;;;4.37;60.35;98094.24;1721470;83;21174;-71
2021/04/25 05:10:07;;;;;;;1.77;1.50;;;;;;;4.47;60.66;98088.05;1721203;83;21181;-73
2021/04/25 05:12:35;;;;;;;2.15;1.80;;;;;;;4.58;60.70;98086.86;1724484;82;21203;-73
2021/04/25 05:15:06;;;;;;;4.08;1.62;;;;;;;4.57;59.65;98062.89;1721095;83;21175;-72
2021/04/25 05:17:34;;;;;;;3.37;1.40;;;;;;;4.83;59.69;98083.44;1720797;83;21180;-72
2021/04/25 05:20:03;;;;;;;4.85;2.10;;;;;;;4.93;58.69;98084.02;1721092;83;21163;-72
2021/04/25 05:22:31;;;;;;;2.75;1.65;;;;;;;5.04;58.11;98082.82;1721226;83;21601;-70
2021/04/25 05:24:59;;;;;;;5.00;1.72;;;;;;;5.16;57.22;98078.11;1720993;83;21182;-70
2021/04/25 05:27:27;;;;;;;1.90;1.45;;;;;;;5.32;56.94;98083.02;1721177;83;21216;-71
2021/04/25 05:29:55;;;;;;;3.15;2.10;;;;;;;5.42;57.29;98079.32;1721213;83;21747;-72
2021/04/25 05:32:23;;;;;;;1.52;1.15;;;;;;;5.56;56.60;98087.72;1721105;83;21156;-73
2021/04/25 05:34:51;;;;;;;5.12;1.45;;;;;;;5.68;56.20;98077.83;1721251;83;21188;-72
2021/04/25 05:37:19;;;;;;;2.70;1.30;;;;;;;5.83;55.77;98072.53;1721167;83;21184;-74
2021/04/25 05:39:47;;;;;;;3.05;1.40;;;;;;;5.93;55.28;98078.22;1721350;83;21221;-74
2021/04/25 05:42:15;;;;;;;2.75;1.40;;;;;;;6.04;54.89;98069.70;1721235;82;21179;-74
2021/04/25 05:44:42;;;;;;;4.33;1.67;;;;;;;6.14;54.41;98066.83;1721151;83;21196;-73
2021/04/25 05:47:10;;;;;;;1.52;1.15;;;;;;;6.25;54.28;98066.02;1720770;82;21609;-73
2021/04/25 05:49:38;;;;;;;3.15;1.72;;;;;;;6.38;53.60;98065.48;1721107;83;21188;-73
2021/04/25 05:52:07;;;;;;;4.12;1.67;;;;;;;6.51;53.67;98062.33;1721123;83;21175;-71
2021/04/25 05:54:35;;;;;;;1.82;1.47;;;;;;;6.66;53.50;98067.62;1721330;83;21176;-71
2021/04/25 05:57:06;;;;;;;5.95;1.77;;;;;;;6.80;52.92;98061.43;1721075;83;21208;-72
2021/04/25 05:59:36;;;;;;;4.25;2.02;;;;;;;6.95;52.52;98056.38;1721098;83;21604;-70
2021/04/25 06:02:07;;;;;;;2.92;1.90;;;;;;;7.09;51.80;98055.66;1720964;83;21160;-71
2021/04/25 06:04:35;;;;;;;3.22;1.25;;;;;;;7.20;51.16;98048.86;1721246;83;21200;-71
2021/04/25 06:07:04;;;;;;;2.55;1.62;;;;;;;7.30;50.63;98051.06;1721326;83;21187;-71
2021/04/25 06:09:32;;;;;;;3.58;1.60;;;;;;;7.44;50.71;98057.25;1721482;83;21203;-71
2021/04/25 06:12:00;;;;;;;3.25;1.82;;;;;;;7.65;50.53;98056.86;1721537;83;21180;-70
2021/04/25 06:14:30;;;;;;;3.33;1.67;;;;;;;7.81;49.23;98048.23;1721659;83;21159;-71
2021/04/25 06:16:58;;;;;;;4.10;1.60;;;;;;;8.00;49.41;98043.22;1729874;81;21734;-71
2021/04/25 06:19:26;;;;;;;5.35;1.95;;;;;;;8.01;48.80;98042.27;1732917;81;21242;-71
2021/04/25 06:21:54;;;;;;;1.65;1.22;;;;;;;7.96;47.52;98046.99;1732834;81;21171;-71
2021/04/25 06:24:22;;;;;;;3.58;1.62;;;;;;;8.15;47.13;98046.78;1733043;81;21178;-73
2021/04/25 06:26:50;;;;;;;4.00;1.60;;;;;;;8.32;47.38;98038.03;1732966;81;21199;-73
2021/04/25 06:29:18;;;;;;;3.12;1.60;;;;;;;8.55;47.31;98036.11;1732928;81;21143;-74
2021/04/25 06:31:46;;;;;;;2.30;1.40;;;;;;;8.73;46.66;98033.27;1733126;81;21517;-73
2021/04/25 06:34:13;;;;;;;3.60;0.82;;;;;;;8.85;45.54;98036.59;1725719;82;21163;-74
2021/04/25 06:36:45;;;;;;;1.85;1.12;;;;;;;8.86;43.05;98032.58;1729470;81;21385;-75
2021/04/25 06:39:13;;;;;;;2.72;1.45;;;;;;;9.01;44.73;98036.45;1692232;83;21622;-71
2021/04/25 06:41:41;;;;;;;2.10;1.25;;;;;;;9.21;44.03;98037.34;1692042;82;21689;-73
2021/04/25 06:44:09;;;;;;;3.45;1.37;;;;;;;9.40;45.41;98036.56;1691887;83;21194;-70
2021/04/25 06:46:37;;;;;;;2.95;1.35;;;;;;;9.59;43.79;98034.00;1692225;83;21181;-71
2021/04/25 06:49:05;;;;;;;4.33;1.92;;;;;;;9.73;44.13;98032.77;1692111;83;21181;-71
2021/04/25 06:51:33;;;;;;;2.52;1.50;;;;;;;9.87;44.31;98028.02;1707950;82;21174;-71
2021/04/25 06:54:02;;;;;;;4.58;1.57;;;;;;;10.03;44.07;98025.34;1701579;83;21194;-69
2021/04/25 06:56:30;;;;;;;3.35;2.00;;;;;;;10.17;43.94;98028.84;1734947;81;21176;-71
2021/04/25 06:58:58;;;;;;;5.95;1.90;;;;;;;10.28;43.42;98025.61;1758152;80;21190;-73
2021/04/25 07:01:26;;;;;;;4.75;2.10;;;;;;;10.31;42.61;98028.43;1760855;80;21179;-75
2021/04/25 07:03:56;;;;;;;5.53;2.87;;;;;;;10.48;43.86;98027.69;1760519;81;21134;-73
2021/04/25 07:06:25;;;;;;;3.83;2.05;;;;;;;10.42;42.42;98028.27;1760468;80;21138;-73
2021/04/25 07:08:53;;;;;;;4.03;2.47;;;;;;;10.53;43.29;98028.09;1751948;80;21316;-73
2021/04/25 07:11:21;;;;;;;6.08;1.90;;;;;;;10.66;42.86;98025.98;1758754;80;21599;-74
2021/04/25 07:13:50;;;;;;;7.80;2.02;;;;;;;10.85;43.51;98022.05;1757390;81;21580;-74
2021/04/25 07:16:18;;;;;;;4.00;2.00;;;;;;;10.96;42.74;98015.85;1755410;80;21183;-68
2021/04/25 07:18:46;;;;;;;3.05;1.62;;;;;;;11.12;44.36;98016.05;1759868;81;21302;-71
2021/04/25 07:21:15;;;;;;;2.87;2.02;;;;;;;11.22;42.97;98014.69;1759590;81;21172;-71
2021/04/25 07:23:42;;;;;;;6.40;2.10;;;;;;;11.39;44.34;98014.73;1759752;81;21139;-71
2021/04/25 07:26:12;;;;;;;5.72;2.42;;;;;;;11.32;42.19;98016.25;1759610;81;21294;-65
2021/04/25 07:28:40;;;;;;;6.55;2.67;;;;;;;11.31;42.79;98014.64;1759697;81;21168;-70
2021/04/25 07:31:10;;;;;;;5.25;2.67;;;;;;;11.53;42.36;98017.30;1759344;81;21156;-69
2021/04/25 07:33:38;;;;;;;9.18;4.80;;;;;;;11.68;41.42;98013.22;1759790;81;21313;-72
2021/04/25 07:36:08;;;;;;;11.10;5.30;;;;;;;11.87;40.56;98007.89;1759671;80;21287;-74
2021/04/25 07:38:39;;;;;;;8.25;2.62;;;;;;;11.85;40.01;98005.94;1759842;80;21199;-74
2021/04/25 07:41:08;;;;;;;4.50;2.00;;;;;;;11.79;40.01;98001.31;1759594;81;21155;-70
2021/04/25 07:43:36;;;;;;;4.30;1.98;;;;;;;11.94;39.41;98002.11;1769191;80;21187;-70
2021/04/25 07:46:07;;;;;;;2.85;1.72;;;;;;;11.91;40.08;97996.70;1710511;81;21195;-73
2021/04/25 07:48:35;;;;;;;2.70;1.60;;;;;;;12.15;40.08;97995.59;1756144;81;22152;-69
2021/04/25 07:51:04;;;;;;;4.33;1.92;;;;;;;12.09;40.22;97994.91;1742439;80;21172;-69
2021/04/25 07:53:33;;;;;;;3.33;1.95;;;;;;;12.45;40.81;97990.93;1751364;81;21211;-73
2021/04/25 07:56:01;;;;;;;4.97;2.30;;;;;;;12.34;38.36;97990.67;1738214;81;21199;-70
2021/04/25 07:58:29;;;;;;;3.75;2.10;;;;;;;12.27;39.54;97989.66;1759673;81;21725;-70
2021/04/25 08:00:57;;;;;;;5.90;1.60;;;;;;;12.08;39.50;97989.84;1760339;80;21732;-70
2021/04/25 08:03:26;;;;;;;4.15;2.17;;;;;;;12.43;40.56;97984.56;1757556;80;21722;-70
2021/04/25 08:05:54;;;;;;;6.97;1.87;;;;;;;12.57;39.85;97980.55;1759646;80;21171;-70
2021/04/25 08:08:22;;;;;;;4.17;2.30;;;;;;;12.74;40.04;97973.98;1758719;80;21166;-69
2021/04/25 08:10:51;;;;;;;3.05;1.62;;;;;;;12.98;40.38;97977.19;1758125;80;21141;-72
2021/04/25 08:13:19;;;;;;;2.75;1.40;;;;;;;13.01;39.74;97979.95;1758302;80;21162;-69
2021/04/25 08:15:47;;;;;;;4.92;1.72;;;;;;;13.16;39.21;97975.80;1759821;80;21136;-70
2021/04/25 08:18:16;;;;;;;2.45;1.72;;;;;;;13.37;38.63;97972.77;1730532;81;21164;-70
2021/04/25 08:20:44;;;;;;;3.62;1.80;;;;;;;13.39;38.20;97965.59;1754286;82;21210;-69
2021/04/25 08:23:12;;;;;;;3.47;2.05;;;;;;;13.55;38.45;97956.48;1755479;82;21601;-70
2021/04/25 08:25:40;;;;;;;4.20;1.92;;;;;;;13.49;38.37;97959.27;1757605;81;21150;-69
2021/04/25 08:28:08;;;;;;;4.28;2.40;;;;;;;13.83;38.02;97956.52;1758907;81;21114;-70
2021/04/25 08:30:36;;;;;;;4.45;2.40;;;;;;;14.00;37.95;97954.72;1759645;80;21194;-70
2021/04/25 08:33:05;;;;;;;5.10;1.87;;;;;;;14.14;37.16;97952.73;1759849;81;21147;-70
2021/04/25 08:35:34;;;;;;;3.02;1.77;;;;;;;14.10;36.12;97951.44;1754740;81;21239;-70
2021/04/25 08:38:02;;;;;;;4.17;2.42;;;;;;;14.04;36.72;97944.28;1731617;82;21584;-65
2021/04/25 08:40:31;;;;;;;4.33;2.47;;;;;;;14.30;35.41;97948.80;1753137;81;21147;-64
2021/04/25 08:42:59;;;;;;;5.20;2.58;;;;;;;14.39;34.34;97947.03;1738734;82;21237;-64
2021/04/25 08:45:28;;;;;;;4.15;1.72;;;;;;;14.11;34.87;97936.92;1724095;81;21176;-63
2021/04/25 08:48:00;;;;;;;7.78;2.10;;;;;;;14.59;34.95;97933.39;1757835;81;21155;-64
2021/04/25 08:50:31;;;;;;;4.15;1.60;;;;;;;14.49;34.36;97929.35;1757761;82;21179;-64
2021/04/25 08:53:00;;;;;;;2.05;1.72;;;;;;;14.66;34.36;97927.84;1757903;81;21568;-65
2021/04/25 08:55:31;;;;;;;2.10;1.32;;;;;;;14.94;34.96;97925.58;1739464;81;21604;-68
2021/04/25 08:57:59;;;;;;;2.67;1.02;;;;;;;15.29;36.00;97911.16;1739243;81;21591;-64
2021/04/25 09:00:28;;;;;;;2.52;1.55;;;;;;;15.60;34.14;97913.26;1717618;82;21569;-64
2021/04/25 09:02:55;;;;;;;4.20;1.80;;;;;;;15.84;33.05;97904.39;1724482;83;21204;-68
2021/04/25 09:05:25;;;;;;;20.80;9.43;;;;;;;15.66;32.01;97908.64;1752407;81;21184;-70
2021/04/25 09:07:56;;;;;;;44.48;20.10;;;;;;;16.04;31.71;97900.78;1749517;81;21876;-70
2021/04/25 09:10:32;;;;;;;14.70;7.05;;;;;;;16.34;33.03;97902.42;1752988;81;21235;-73
2021/04/25 09:13:00;;;;;;;4.73;2.43;;;;;;;16.64;32.78;97899.35;1747447;81;21302;-72
2021/04/25 09:15:33;;;;;;;22.65;11.93;;;;;;;16.58;30.89;97889.58;1752891;80;21727;-72
2021/04/25 09:18:04;;;;;;;8.00;4.55;;;;;;;16.76;31.57;97886.09;1776172;80;21179;-69
2021/04/25 09:21:08;;;;;;;5.30;1.65;;;;;;;16.91;30.96;97888.19;1790013;78;21227;-67
2021/04/25 09:23:36;;;;;;;3.87;1.87;;;;;;;16.41;29.86;97875.84;1759921;80;21182;-66
2021/04/25 09:26:06;;;;;;;2.58;1.70;;;;;;;16.51;29.58;97869.81;1760879;80;21159;-66
2021/04/25 09:28:38;;;;;;;4.12;1.67;;;;;;;16.53;29.79;97865.22;1759785;79;21341;-67
2021/04/25 09:31:11;;;;;;;1.90;1.45;;;;;;;16.53;29.11;97872.27;1761153;81;21161;-67
2021/04/25 09:37:19;;;;;;;2.35;0.95;;;;;;;17.86;31.44;97869.52;1817462;78;21284;-68
2021/04/25 09:39:59;;;;;;;2.08;1.12;;;;;;;18.33;28.27;97857.00;1798396;77;21156;-68
2021/04/25 09:42:27;;;;;;;1.82;1.30;;;;;;;18.98;29.73;97851.25;1821851;77;21141;-67
2021/04/25 09:44:55;;;;;;;2.95;1.42;;;;;;;19.54;25.49;97857.04;1821285;78;21309;-70
2021/04/25 09:47:32;;;;;;;2.92;1.40;;;;;;;19.79;24.66;97846.72;1816947;78;21692;-70
2021/04/25 09:50:00;;;;;;;2.35;1.50;;;;;;;20.08;24.63;97847.58;1817359;78;21119;-68
2021/04/25 09:52:38;;;;;;;5.33;1.87;;;;;;;20.65;26.76;97843.41;1824920;78;21194;-70
2021/04/25 09:55:16;;;;;;;2.55;1.60;;;;;;;20.69;23.92;97840.16;1799588;78;21228;-69
2021/04/25 09:57:49;;;;;;;3.42;1.80;;;;;;;21.17;24.57;97844.99;1822552;78;21131;-68
2021/04/25 10:00:18;;;;;;;11.73;5.95;;;;;;;21.01;22.89;97828.33;1816489;76;21273;-69
2021/04/25 10:03:10;;;;;;;21.35;11.50;;;;;;;21.52;22.94;97829.51;1798351;77;21195;-67
2021/04/25 10:05:39;;;;;;;3.15;2.30;;;;;;;22.29;26.66;97830.89;1817075;78;21176;-67
2021/04/25 10:08:07;;;;;;;2.37;1.80;;;;;;;22.68;22.73;97820.66;1822328;78;21101;-68
2021/04/25 10:10:37;;;;;;;3.98;1.10;;;;;;;23.23;25.72;97812.58;1809372;78;21135;-67
2021/04/25 10:13:05;;;;;;;2.52;1.50;;;;;;;23.42;20.35;97805.38;1826715;78;21147;-68
2021/04/25 10:15:33;;;;;;;1.77;1.42;;;;;;;23.80;19.80;97799.68;1797927;78;21568;-68
2021/04/25 10:18:01;;;;;;;2.17;1.40;;;;;;;23.64;18.96;97791.89;1788798;79;21262;-71
2021/04/25 10:20:29;;;;;;;6.15;1.82;;;;;;;23.79;21.06;97790.91;1832001;77;21996;-70
2021/04/25 10:22:57;;;;;;;5.47;1.77;;;;;;;22.15;20.40;97775.98;1819696;78;21148;-74
2021/04/25 10:25:37;;;;;;;1.70;1.40;;;;;;;22.21;20.57;97783.05;1807742;79;21294;-74
2021/04/25 10:28:28;;;;;;;4.42;1.50;;;;;;;22.25;20.50;97781.59;1806483;79;21778;-73
2021/04/25 10:31:03;;;;;;;20.48;11.20;;;;;;;22.47;20.44;97778.77;1807258;79;21267;-69
2021/04/25 10:34:01;;;;;;;69.82;34.23;;;;;;;22.87;20.59;97772.47;1806040;79;21747;-71
2021/04/25 10:36:54;;;;;;;9.15;5.65;;;;;;;23.37;19.90;97773.45;1807390;79;21176;-69
2021/04/25 10:39:52;;;;;;;2.65;1.47;;;;;;;23.91;20.48;97766.53;1807311;79;21350;-69
2021/04/25 10:42:29;;;;;;;2.85;1.52;;;;;;;24.59;20.78;97767.95;1746770;80;21174;-71
2021/04/25 10:45:03;;;;;;;2.35;1.15;;;;;;;24.74;18.91;97772.77;1746896;82;21581;-71
2021/04/25 10:47:38;;;;;;;4.15;1.70;;;;;;;24.53;16.10;97762.78;1818512;79;21521;-72
2021/04/25 10:50:24;;;;;;;1.80;1.27;;;;;;;24.26;16.97;97763.03;1818242;78;21568;-71
2021/04/25 10:52:52;;;;;;;4.20;1.25;;;;;;;24.84;16.82;97768.14;1818400;79;21277;-72
2021/04/25 10:55:25;;;;;;;1.27;1.05;;;;;;;25.68;16.96;97765.88;1818614;78;21135;-71
2021/04/25 10:58:02;;;;;;;2.58;1.20;;;;;;;25.38;16.19;97762.20;1746790;80;21169;-70
2021/04/25 11:00:44;;;;;;;2.22;1.40;;;;;;;25.20;16.08;97759.79;1818442;79;21156;-72
2021/04/25 11:03:26;;;;;;;2.25;1.50;;;;;;;24.36;16.56;97763.23;1746856;80;21184;-72
2021/04/25 11:05:54;;;;;;;2.17;1.35;;;;;;;24.36;17.42;97760.06;1818355;79;21152;-72
2021/04/25 11:08:39;;;;;;;2.15;1.37;;;;;;;24.56;17.01;97759.14;1746734;81;21297;-72
2021/04/25 11:11:13;;;;;;;3.00;1.20;;;;;;;24.27;17.20;97753.53;1818342;79;21146;-72
2021/04/25 11:13:47;;;;;;;2.12;1.37;;;;;;;24.90;18.63;97749.42;1818461;79;21152;-70
2021/04/25 11:16:25;;;;;;;1.87;1.25;;;;;;;24.86;17.28;97748.84;1747125;80;21555;-72
2021/04/25 11:19:12;;;;;;;1.98;1.20;;;;;;;24.23;16.97;97745.75;1818328;79;21651;-70
2021/04/25 11:21:57;;;;;;;3.55;1.40;;;;;;;24.26;16.90;97741.30;1818402;79;21146;-70
2021/04/25 11:24:30;;;;;;;2.02;1.17;;;;;;;23.86;17.26;97739.89;1746780;80;21162;-69
2021/04/25 11:27:00;;;;;;;2.37;0.98;;;;;;;24.93;16.52;97737.02;1818439;79;21136;-71
2021/04/25 11:29:40;;;;;;;2.15;1.12;;;;;;;25.65;16.51;97733.64;1818395;79;21667;-69
2021/04/25 11:32:07;;;;;;;1.40;1.00;;;;;;;25.27;15.99;97731.20;1746665;81;21348;-70
2021/04/25 11:34:58;;;;;;;3.33;1.40;;;;;;;25.60;17.10;97734.41;1818320;79;21109;-70
2021/04/25 11:37:26;;;;;;;2.22;1.30;;;;;;;25.97;15.75;97725.33;1818449;78;21135;-74
2021/04/25 11:40:02;;;;;;;1.22;0.88;;;;;;;25.47;15.92;97722.73;1814949;78;21513;-74
2021/04/25 11:42:39;;;;;;;1.72;1.20;;;;;;;25.63;15.13;97723.80;1819291;79;21191;-73
2021/04/25 11:45:13;;;;;;;5.12;1.00;;;;;;;23.66;16.80;97708.95;1816026;78;21623;-74
2021/04/25 11:48:00;;;;;;;1.47;1.00;;;;;;;23.01;17.24;97705.03;1819192;79;21136;-73
2021/04/25 11:50:35;;;;;;;2.83;1.47;;;;;;;23.80;16.61;97702.38;1819040;78;21688;-73
2021/04/25 11:53:04;;;;;;;1.50;0.80;;;;;;;23.51;17.10;97690.87;1819298;79;21144;-74
2021/04/25 11:55:32;;;;;;;1.92;1.02;;;;;;;25.10;15.46;97699.81;1819139;79;21175;-74
2021/04/25 11:58:00;;;;;;;2.33;1.07;;;;;;;25.52;14.85;97696.27;1819285;79;21163;-74
2021/04/25 12:00:33;;;;;;;5.20;1.12;;;;;;;25.93;14.61;97692.28;1819304;77;21195;-74
2021/04/25 12:03:04;;;;;;;2.27;1.22;;;;;;;26.19;14.45;97690.75;1819226;79;21184;-75